createdAt,value
2016-08-02T00:00:40.714Z,17.8
2016-08-02T00:01:39.916Z,17.77
2016-08-02T00:02:39.931Z,17.49
2016-08-02T00:03:40.595Z,17.48
2016-08-02T00:04:40.581Z,17.29
2016-08-02T00:05:40.569Z,17.18
2016-08-02T00:06:40.540Z,17.33
2016-08-02T00:07:40.540Z,17.3
2016-08-02T00:09:40.520Z,17.21
2016-08-02T00:10:39.085Z,17.11
2016-08-02T00:11:39.116Z,17
2016-08-02T00:12:40.481Z,17.06
2016-08-02T00:13:40.439Z,17.16
2016-08-02T00:14:40.430Z,17.14
2016-08-02T00:15:40.416Z,16.96
2016-08-02T00:16:40.398Z,17.01
2016-08-02T00:17:39.682Z,16.98
2016-08-02T00:18:40.425Z,17.05
2016-08-02T00:19:39.681Z,16.98
2016-08-02T00:20:38.916Z,17.05
2016-08-02T00:21:39.696Z,17.11
2016-08-02T00:22:39.610Z,17.11
2016-08-02T00:24:39.570Z,17.01
2016-08-02T00:25:40.292Z,17.12
2016-08-02T00:26:40.261Z,17.24
2016-08-02T00:27:40.260Z,17.14
2016-08-02T00:28:40.241Z,17.22
2016-08-02T00:29:39.504Z,17.19
2016-08-02T00:30:40.220Z,17.19
2016-08-02T00:31:39.491Z,17.15
2016-08-02T00:32:40.190Z,17.22
2016-08-02T00:33:38.729Z,17.08
2016-08-02T00:34:39.439Z,17.06
2016-08-02T00:35:40.149Z,17.08
2016-08-02T00:36:39.407Z,17.24
2016-08-02T00:37:40.110Z,17.24
2016-08-02T00:39:39.357Z,17.31
2016-08-02T00:40:40.068Z,17.34
2016-08-02T00:41:40.047Z,17.16
2016-08-02T00:42:39.324Z,17.19
2016-08-02T00:43:40.020Z,17.15
2016-08-02T00:44:40.011Z,17.21
2016-08-02T00:45:40.001Z,17.22
2016-08-02T00:46:39.970Z,17.24
2016-08-02T00:47:39.975Z,17.18
2016-08-02T00:48:39.955Z,17.22
2016-08-02T00:49:39.939Z,17.21
2016-08-02T00:50:39.208Z,17.24
2016-08-02T00:51:39.911Z,17.16
2016-08-02T00:52:39.180Z,17.16
2016-08-02T00:53:39.879Z,17.11
2016-08-02T00:54:39.142Z,17.21
2016-08-02T00:55:39.845Z,17.22
2016-08-02T00:56:39.833Z,17.31
2016-08-02T00:57:38.386Z,17.34
2016-08-02T00:58:39.811Z,17.22
2016-08-02T00:59:39.798Z,17.3
2016-08-02T01:00:39.778Z,17.26
2016-08-02T01:01:39.767Z,17.34
2016-08-02T01:02:39.759Z,17.24
2016-08-02T01:03:39.738Z,17.29
2016-08-02T01:04:39.000Z,17.27
2016-08-02T01:05:39.710Z,17.22
2016-08-02T01:06:39.699Z,17.18
2016-08-02T01:07:38.963Z,17.22
2016-08-02T01:08:39.689Z,17.22
2016-08-02T01:09:39.677Z,17.22
2016-08-02T01:10:39.634Z,17.19
2016-08-02T01:11:39.713Z,17.31
2016-08-02T01:12:39.611Z,17.21
2016-08-02T01:13:39.610Z,17.21
2016-08-02T01:14:39.582Z,17.24
2016-08-02T01:15:39.578Z,17.18
2016-08-02T01:16:39.552Z,17.09
2016-08-02T01:17:38.828Z,17.18
2016-08-02T01:18:39.545Z,17.05
2016-08-02T01:19:39.536Z,17.06
2016-08-02T01:20:39.498Z,17.03
2016-08-02T01:21:39.553Z,17.06
2016-08-02T01:22:39.464Z,17.14
2016-08-02T01:23:38.740Z,17.11
2016-08-02T01:24:39.443Z,17.12
2016-08-02T01:25:38.730Z,17.15
2016-08-02T01:26:39.407Z,17.06
2016-08-02T01:27:38.708Z,17.12
2016-08-02T01:28:38.658Z,17.01
2016-08-02T01:29:39.394Z,17.01
2016-08-02T01:30:39.352Z,17.08
2016-08-02T01:31:38.626Z,17.03
2016-08-02T01:32:39.323Z,17.15
2016-08-02T01:33:39.308Z,17.08
2016-08-02T01:34:37.945Z,17.15
2016-08-02T01:35:38.567Z,17.14
2016-08-02T01:36:39.274Z,17.12
2016-08-02T01:37:39.256Z,16.96
2016-08-02T01:38:39.236Z,16.96
2016-08-02T01:39:38.517Z,16.98
2016-08-02T01:40:39.210Z,16.98
2016-08-02T01:41:38.477Z,17.05
2016-08-02T01:42:39.187Z,16.98
2016-08-02T01:43:39.167Z,16.98
2016-08-02T01:44:39.146Z,16.94
2016-08-02T01:45:39.129Z,17.01
2016-08-02T01:46:39.119Z,16.96
2016-08-02T01:47:38.400Z,17.03
2016-08-02T01:48:38.376Z,16.93
2016-08-02T01:49:37.728Z,17.08
2016-08-02T01:50:39.065Z,17.03
2016-08-02T01:51:39.056Z,17.09
2016-08-02T01:52:38.324Z,16.94
2016-08-02T01:53:38.325Z,16.9
2016-08-02T01:54:39.013Z,16.94
2016-08-02T01:55:38.278Z,16.94
2016-08-02T01:56:38.268Z,16.97
2016-08-02T01:57:38.965Z,16.93
2016-08-02T01:58:38.952Z,16.9
2016-08-02T01:59:38.944Z,17.06
2016-08-02T02:00:38.915Z,17
2016-08-02T02:01:38.912Z,17.05
2016-08-02T02:02:38.240Z,17.05
2016-08-02T02:03:38.875Z,16.97
2016-08-02T02:04:38.159Z,17.06
2016-08-02T02:05:38.900Z,17.03
2016-08-02T02:06:38.842Z,17.08
2016-08-02T02:07:38.106Z,16.91
2016-08-02T02:08:38.086Z,16.87
2016-08-02T02:09:38.808Z,16.93
2016-08-02T02:10:38.785Z,16.94
2016-08-02T02:11:38.048Z,16.81
2016-08-02T02:12:38.753Z,16.72
2016-08-02T02:13:38.750Z,16.78
2016-08-02T02:14:38.727Z,16.74
2016-08-02T02:15:38.000Z,16.81
2016-08-02T02:16:38.714Z,16.74
2016-08-02T02:17:38.675Z,16.76
2016-08-02T02:18:38.688Z,16.75
2016-08-02T02:19:38.645Z,16.64
2016-08-02T02:20:37.910Z,16.61
2016-08-02T02:21:38.616Z,16.6
2016-08-02T02:22:38.627Z,16.69
2016-08-02T02:23:37.157Z,16.71
2016-08-02T02:24:38.585Z,16.64
2016-08-02T02:25:38.570Z,16.71
2016-08-02T02:26:38.554Z,16.75
2016-08-02T02:27:38.526Z,16.72
2016-08-02T02:28:38.530Z,16.75
2016-08-02T02:29:38.500Z,16.54
2016-08-02T02:30:38.498Z,16.64
2016-08-02T02:31:37.754Z,16.64
2016-08-02T02:32:37.797Z,16.61
2016-08-02T02:33:38.468Z,16.58
2016-08-02T02:34:38.428Z,16.64
2016-08-02T02:35:38.426Z,16.69
2016-08-02T02:36:37.766Z,16.66
2016-08-02T02:37:37.691Z,16.74
2016-08-02T02:38:38.438Z,16.68
2016-08-02T02:39:38.380Z,16.69
2016-08-02T02:40:37.635Z,16.72
2016-08-02T02:41:38.324Z,16.82
2016-08-02T02:42:38.386Z,16.83
2016-08-02T02:43:38.300Z,16.74
2016-08-02T02:44:38.371Z,16.58
2016-08-02T02:45:38.280Z,16.75
2016-08-02T02:46:38.299Z,16.71
2016-08-02T02:47:38.237Z,16.71
2016-08-02T02:48:38.295Z,16.71
2016-08-02T02:49:38.220Z,16.78
2016-08-02T02:50:38.221Z,16.72
2016-08-02T02:51:38.192Z,16.74
2016-08-02T02:52:38.216Z,16.63
2016-08-02T02:53:38.152Z,16.63
2016-08-02T02:54:37.426Z,16.64
2016-08-02T02:55:38.137Z,16.58
2016-08-02T02:56:37.440Z,16.53
2016-08-02T02:57:38.111Z,16.17
2016-08-02T02:58:38.098Z,16.31
2016-08-02T02:59:37.371Z,16.34
2016-08-02T03:00:38.104Z,16.32
2016-08-02T03:01:37.332Z,16.28
2016-08-02T03:02:38.064Z,16.21
2016-08-02T03:03:38.051Z,16.21
2016-08-02T03:04:38.005Z,16.34
2016-08-02T03:05:37.268Z,16.54
2016-08-02T03:06:37.967Z,16.51
2016-08-02T03:07:37.949Z,16.57
2016-08-02T03:08:37.947Z,16.63
2016-08-02T03:09:37.920Z,16.58
2016-08-02T03:10:37.902Z,16.63
2016-08-02T03:11:37.898Z,16.56
2016-08-02T03:12:37.905Z,16.69
2016-08-02T03:13:37.865Z,16.6
2016-08-02T03:14:37.860Z,16.6
2016-08-02T03:15:37.188Z,16.63
2016-08-02T03:16:37.830Z,16.48
2016-08-02T03:17:37.811Z,16.36
2016-08-02T03:18:37.141Z,16.42
2016-08-02T03:19:37.778Z,16.48
2016-08-02T03:20:37.769Z,16.48
2016-08-02T03:21:37.752Z,16.34
2016-08-02T03:22:37.941Z,16.48
2016-08-02T03:23:37.003Z,16.46
2016-08-02T03:24:37.704Z,16.45
2016-08-02T03:25:36.961Z,16.43
2016-08-02T03:26:37.674Z,16.39
2016-08-02T03:27:37.668Z,16.43
2016-08-02T03:28:37.646Z,16.45
2016-08-02T03:29:37.620Z,16.56
2016-08-02T03:30:36.906Z,16.54
2016-08-02T03:31:37.606Z,16.56
2016-08-02T03:32:36.874Z,16.66
2016-08-02T03:33:37.558Z,16.71
2016-08-02T03:34:36.851Z,16.72
2016-08-02T03:35:37.549Z,16.72
2016-08-02T03:36:37.581Z,16.74
2016-08-02T03:37:37.521Z,16.66
2016-08-02T03:38:37.516Z,16.69
2016-08-02T03:39:37.490Z,16.68
2016-08-02T03:40:37.510Z,16.81
2016-08-02T03:41:36.750Z,16.69
2016-08-02T03:42:37.440Z,16.71
2016-08-02T03:43:37.425Z,16.75
2016-08-02T03:44:37.417Z,16.58
2016-08-02T03:45:37.399Z,16.6
2016-08-02T03:46:37.389Z,16.61
2016-08-02T03:47:37.367Z,16.66
2016-08-02T03:48:37.342Z,16.72
2016-08-02T03:49:37.336Z,16.76
2016-08-02T03:50:37.332Z,16.85
2016-08-02T03:51:37.324Z,16.75
2016-08-02T03:52:36.580Z,16.79
2016-08-02T03:53:37.286Z,16.75
2016-08-02T03:54:37.261Z,16.72
2016-08-02T03:55:37.234Z,16.79
2016-08-02T03:56:37.249Z,16.71
2016-08-02T03:57:37.230Z,16.75
2016-08-02T03:58:37.230Z,16.75
2016-08-02T03:59:37.210Z,16.79
2016-08-02T04:00:36.463Z,16.79
2016-08-02T04:01:36.445Z,16.76
2016-08-02T04:02:37.150Z,16.74
2016-08-02T04:03:37.140Z,16.66
2016-08-02T04:04:37.122Z,16.75
2016-08-02T04:05:37.104Z,16.75
2016-08-02T04:06:36.375Z,16.75
2016-08-02T04:07:36.360Z,16.79
2016-08-02T04:08:37.071Z,16.72
2016-08-02T04:09:37.058Z,16.64
2016-08-02T04:10:37.039Z,16.61
2016-08-02T04:11:37.021Z,16.5
2016-08-02T04:12:37.011Z,16.42
2016-08-02T04:13:36.280Z,16.38
2016-08-02T04:14:36.981Z,16.43
2016-08-02T04:15:37.007Z,16.35
2016-08-02T04:16:36.947Z,16.34
2016-08-02T04:17:36.929Z,16.12
2016-08-02T04:18:36.906Z,16.26
2016-08-02T04:19:36.895Z,16.24
2016-08-02T04:20:36.914Z,16.17
2016-08-02T04:21:36.154Z,16.26
2016-08-02T04:22:36.135Z,16.17
2016-08-02T04:23:36.195Z,16.2
2016-08-02T04:24:36.818Z,16.34
2016-08-02T04:25:36.102Z,16.46
2016-08-02T04:26:36.812Z,16.58
2016-08-02T04:27:36.790Z,16.63
2016-08-02T04:28:36.779Z,16.61
2016-08-02T04:29:36.060Z,16.58
2016-08-02T04:30:36.740Z,16.63
2016-08-02T04:31:36.744Z,16.76
2016-08-02T04:32:36.710Z,16.74
2016-08-02T04:33:35.999Z,16.72
2016-08-02T04:34:35.957Z,16.74
2016-08-02T04:35:36.677Z,16.69
2016-08-02T04:36:36.666Z,16.71
2016-08-02T04:37:36.654Z,16.72
2016-08-02T04:38:36.617Z,16.79
2016-08-02T04:39:35.900Z,16.78
2016-08-02T04:40:36.595Z,16.76
2016-08-02T04:41:36.609Z,16.69
2016-08-02T04:42:36.570Z,16.76
2016-08-02T04:43:36.560Z,16.76
2016-08-02T04:44:36.540Z,16.61
2016-08-02T04:45:36.578Z,16.61
2016-08-02T04:46:36.519Z,16.63
2016-08-02T04:47:36.540Z,16.72
2016-08-02T04:48:36.499Z,16.74
2016-08-02T04:49:35.808Z,16.58
2016-08-02T04:50:36.456Z,16.54
2016-08-02T04:51:36.467Z,16.56
2016-08-02T04:52:36.414Z,16.46
2016-08-02T04:53:35.738Z,16.41
2016-08-02T04:54:36.380Z,16.39
2016-08-02T04:55:36.372Z,16.48
2016-08-02T04:56:35.667Z,16.53
2016-08-02T04:57:35.634Z,16.53
2016-08-02T04:58:36.335Z,16.54
2016-08-02T04:59:36.330Z,16.51
2016-08-02T05:00:36.309Z,16.48
2016-08-02T05:01:35.574Z,16.5
2016-08-02T05:02:36.272Z,16.45
2016-08-02T05:03:36.259Z,16.42
2016-08-02T05:04:35.531Z,16.45
2016-08-02T05:05:36.272Z,16.34
2016-08-02T05:06:35.531Z,16.39
2016-08-02T05:07:36.211Z,16.39
2016-08-02T05:08:36.207Z,16.48
2016-08-02T05:09:35.452Z,16.36
2016-08-02T05:10:34.727Z,16.32
2016-08-02T05:11:35.417Z,16.24
2016-08-02T05:12:36.141Z,16.36
2016-08-02T05:13:36.131Z,16.43
2016-08-02T05:14:36.106Z,16.46
2016-08-02T05:15:36.089Z,16.5
2016-08-02T05:16:35.357Z,16.39
2016-08-02T05:17:35.340Z,16.38
2016-08-02T05:18:36.050Z,16.48
2016-08-02T05:19:34.585Z,16.43
2016-08-02T05:20:36.005Z,16.35
2016-08-02T05:21:36.006Z,16.31
2016-08-02T05:22:35.986Z,16.41
2016-08-02T05:23:35.965Z,16.36
2016-08-02T05:24:35.944Z,16.43
2016-08-02T05:25:35.292Z,16.38
2016-08-02T05:26:35.215Z,16.34
2016-08-02T05:27:35.197Z,16.43
2016-08-02T05:28:35.890Z,16.36
2016-08-02T05:29:35.867Z,16.46
2016-08-02T05:30:35.858Z,16.58
2016-08-02T05:31:35.840Z,16.71
2016-08-02T05:32:35.828Z,16.58
2016-08-02T05:33:35.840Z,16.69
2016-08-02T05:34:35.800Z,16.6
2016-08-02T05:35:35.070Z,16.61
2016-08-02T05:36:35.072Z,16.6
2016-08-02T05:37:35.767Z,16.56
2016-08-02T05:38:34.320Z,16.6
2016-08-02T05:39:34.298Z,16.61
2016-08-02T05:40:35.707Z,16.54
2016-08-02T05:41:34.980Z,16.61
2016-08-02T05:42:35.679Z,16.6
2016-08-02T05:43:35.669Z,16.6
2016-08-02T05:44:35.651Z,16.69
2016-08-02T05:45:35.636Z,16.78
2016-08-02T05:46:35.620Z,16.69
2016-08-02T05:47:35.616Z,16.74
2016-08-02T05:48:35.600Z,16.76
2016-08-02T05:49:35.580Z,16.72
2016-08-02T05:50:35.568Z,16.71
2016-08-02T05:51:35.554Z,16.82
2016-08-02T05:52:34.883Z,16.76
2016-08-02T05:53:35.522Z,16.83
2016-08-02T05:54:35.508Z,16.81
2016-08-02T05:55:35.506Z,16.76
2016-08-02T05:56:35.484Z,16.76
2016-08-02T05:57:34.761Z,16.83
2016-08-02T05:58:34.746Z,16.87
2016-08-02T05:59:34.726Z,16.83
2016-08-02T06:00:34.709Z,16.9
2016-08-02T06:01:34.696Z,16.83
2016-08-02T06:02:35.390Z,16.93
2016-08-02T06:03:35.368Z,16.94
2016-08-02T06:04:35.362Z,16.91
2016-08-02T06:05:35.352Z,16.94
2016-08-02T06:06:35.357Z,16.74
2016-08-02T06:07:35.322Z,16.68
2016-08-02T06:08:35.313Z,16.69
2016-08-02T06:09:34.148Z,16.71
2016-08-02T06:10:35.346Z,16.79
2016-08-02T06:11:34.545Z,16.72
2016-08-02T06:12:34.553Z,16.82
2016-08-02T06:13:35.261Z,16.76
2016-08-02T06:14:35.227Z,16.79
2016-08-02T06:15:35.211Z,16.72
2016-08-02T06:16:35.186Z,16.81
2016-08-02T06:17:33.766Z,16.69
2016-08-02T06:18:34.461Z,16.69
2016-08-02T06:19:34.442Z,16.74
2016-08-02T06:20:34.427Z,16.72
2016-08-02T06:21:33.702Z,16.68
2016-08-02T06:22:35.131Z,16.78
2016-08-02T06:23:35.112Z,16.79
2016-08-02T06:24:33.765Z,16.79
2016-08-02T06:25:34.359Z,16.78
2016-08-02T06:26:35.108Z,16.74
2016-08-02T06:27:35.033Z,16.72
2016-08-02T06:28:34.319Z,16.87
2016-08-02T06:29:35.007Z,16.81
2016-08-02T06:30:35.048Z,16.81
2016-08-02T06:31:34.981Z,16.83
2016-08-02T06:32:35.001Z,16.82
2016-08-02T06:33:34.949Z,16.72
2016-08-02T06:34:34.951Z,16.79
2016-08-02T06:35:34.920Z,16.78
2016-08-02T06:36:34.918Z,16.76
2016-08-02T06:37:34.894Z,16.78
2016-08-02T06:38:34.908Z,16.74
2016-08-02T06:40:34.890Z,16.64
2016-08-02T06:41:34.119Z,16.74
2016-08-02T06:42:34.817Z,16.83
2016-08-02T06:43:34.815Z,16.72
2016-08-02T06:44:34.786Z,16.79
2016-08-02T06:45:34.788Z,16.83
2016-08-02T06:46:34.043Z,16.87
2016-08-02T06:47:34.035Z,16.85
2016-08-02T06:48:34.747Z,16.78
2016-08-02T06:49:34.725Z,16.83
2016-08-02T06:50:33.986Z,16.71
2016-08-02T06:51:34.688Z,16.64
2016-08-02T06:52:33.955Z,16.79
2016-08-02T06:53:34.659Z,16.94
2016-08-02T06:55:34.630Z,16.97
2016-08-02T06:56:33.894Z,17.01
2016-08-02T06:57:34.599Z,17.09
2016-08-02T06:58:34.599Z,17.06
2016-08-02T06:59:33.928Z,17.15
2016-08-02T07:00:34.568Z,17.21
2016-08-02T07:01:33.834Z,17.16
2016-08-02T07:02:34.537Z,17.33
2016-08-02T07:03:33.806Z,17.16
2016-08-02T07:04:34.523Z,17.15
2016-08-02T07:05:34.494Z,17.12
2016-08-02T07:06:34.491Z,17.03
2016-08-02T07:07:34.459Z,17.11
2016-08-02T07:08:34.455Z,17.16
2016-08-02T07:09:34.675Z,16.81
2016-08-02T07:10:33.704Z,16.82
2016-08-02T07:11:33.693Z,16.97
2016-08-02T07:12:34.402Z,17.01
2016-08-02T07:13:34.376Z,17.08
2016-08-02T07:14:34.376Z,17.16
2016-08-02T07:15:34.362Z,17.01
2016-08-02T07:16:34.334Z,17.06
2016-08-02T07:17:34.316Z,17
2016-08-02T07:18:34.318Z,17.09
2016-08-02T07:19:34.284Z,17.14
2016-08-02T07:20:34.286Z,17.08
2016-08-02T07:21:33.536Z,17.03
2016-08-02T07:22:34.253Z,17
2016-08-02T07:23:33.519Z,17.01
2016-08-02T07:24:33.512Z,16.87
2016-08-02T07:25:33.505Z,16.81
2016-08-02T07:26:34.209Z,16.89
2016-08-02T07:27:34.192Z,16.98
2016-08-02T07:28:32.753Z,16.96
2016-08-02T07:29:34.226Z,17.09
2016-08-02T07:30:34.145Z,17.08
2016-08-02T07:31:34.124Z,17.12
2016-08-02T07:32:34.134Z,17.09
2016-08-02T07:33:34.099Z,16.96
2016-08-02T07:34:34.081Z,16.85
2016-08-02T07:35:32.637Z,16.78
2016-08-02T07:36:34.055Z,16.78
2016-08-02T07:37:32.593Z,16.75
2016-08-02T07:38:34.021Z,16.87
2016-08-02T07:39:33.305Z,16.89
2016-08-02T07:40:33.997Z,16.82
2016-08-02T07:41:33.982Z,16.9
2016-08-02T07:42:33.980Z,16.94
2016-08-02T07:43:33.967Z,17.03
2016-08-02T07:44:33.228Z,17.09
2016-08-02T07:45:33.961Z,17.05
2016-08-02T07:46:33.197Z,16.85
2016-08-02T07:47:33.907Z,16.64
2016-08-02T07:48:33.180Z,16.79
2016-08-02T07:49:33.877Z,16.82
2016-08-02T07:50:33.851Z,16.74
2016-08-02T07:51:33.156Z,16.71
2016-08-02T07:52:33.829Z,16.71
2016-08-02T07:53:33.879Z,16.72
2016-08-02T07:54:33.799Z,16.76
2016-08-02T07:55:33.825Z,16.89
2016-08-02T07:56:33.767Z,17.01
2016-08-02T07:57:33.750Z,16.91
2016-08-02T07:58:33.754Z,17
2016-08-02T07:59:32.300Z,17.08
2016-08-02T08:00:33.011Z,17.06
2016-08-02T08:01:33.729Z,17.08
2016-08-02T08:02:33.684Z,17.08
2016-08-02T08:03:33.666Z,17.16
2016-08-02T08:04:33.654Z,17.34
2016-08-02T08:05:33.648Z,17.33
2016-08-02T08:06:32.212Z,17.4
2016-08-02T08:07:32.897Z,17.24
2016-08-02T08:08:33.613Z,17.05
2016-08-02T08:09:32.149Z,16.89
2016-08-02T08:10:32.857Z,16.71
2016-08-02T08:11:32.836Z,16.5
2016-08-02T08:12:32.833Z,16.39
2016-08-02T08:13:33.542Z,16.27
2016-08-02T08:14:32.094Z,16.36
2016-08-02T08:15:33.559Z,16.28
2016-08-02T08:16:32.854Z,16.32
2016-08-02T08:17:32.759Z,16.36
2016-08-02T08:18:33.477Z,16.35
2016-08-02T08:19:32.008Z,16.41
2016-08-02T08:20:33.425Z,16.34
2016-08-02T08:21:33.552Z,16.17
2016-08-02T08:22:33.395Z,16.17
2016-08-02T08:23:33.439Z,16.21
2016-08-02T08:24:32.660Z,16.21
2016-08-02T08:25:32.647Z,16.34
2016-08-02T08:26:32.610Z,16.5
2016-08-02T08:27:33.328Z,16.63
2016-08-02T08:28:33.317Z,16.64
2016-08-02T08:29:32.578Z,16.57
2016-08-02T08:30:32.562Z,16.45
2016-08-02T08:31:32.537Z,16.56
2016-08-02T08:32:33.253Z,16.58
2016-08-02T08:33:33.272Z,16.72
2016-08-02T08:34:33.221Z,16.75
2016-08-02T08:35:31.772Z,16.6
2016-08-02T08:36:32.479Z,16.61
2016-08-02T08:37:33.189Z,16.66
2016-08-02T08:38:33.180Z,16.42
2016-08-02T08:39:33.161Z,16.43
2016-08-02T08:40:33.123Z,16.75
2016-08-02T08:41:32.398Z,16.69
2016-08-02T08:42:33.111Z,16.69
2016-08-02T08:43:32.364Z,16.74
2016-08-02T08:44:33.081Z,16.75
2016-08-02T08:45:33.058Z,16.81
2016-08-02T08:46:31.654Z,16.97
2016-08-02T08:47:33.039Z,17.06
2016-08-02T08:48:33.020Z,17.22
2016-08-02T08:49:32.291Z,17.11
2016-08-02T08:50:32.289Z,17.22
2016-08-02T08:51:32.259Z,17.49
2016-08-02T08:52:32.255Z,17.48
2016-08-02T08:53:32.959Z,17.56
2016-08-02T08:54:32.931Z,17.71
2016-08-02T08:55:32.907Z,17.72
2016-08-02T08:56:32.911Z,17.82
2016-08-02T08:57:32.191Z,17.75
2016-08-02T08:58:32.878Z,17.86
2016-08-02T08:59:32.848Z,17.95
2016-08-02T09:00:32.144Z,18.15
2016-08-02T09:01:32.843Z,18.26
2016-08-02T09:02:31.410Z,18.41
2016-08-02T09:03:31.378Z,18.47
2016-08-02T09:04:32.810Z,18.56
2016-08-02T09:05:32.786Z,18.41
2016-08-02T09:06:32.144Z,18.35
2016-08-02T09:07:31.314Z,18.33
2016-08-02T09:08:32.046Z,18.04
2016-08-02T09:09:32.736Z,18.15
2016-08-02T09:10:32.045Z,18.1
2016-08-02T09:11:31.998Z,17.7
2016-08-02T09:12:32.718Z,17.85
2016-08-02T09:13:32.686Z,17.86
2016-08-02T09:14:32.734Z,18.2
2016-08-02T09:15:31.933Z,18.29
2016-08-02T09:16:32.712Z,18.25
2016-08-02T09:17:31.910Z,18.11
2016-08-02T09:18:31.965Z,18.12
2016-08-02T09:19:32.595Z,18.12
2016-08-02T09:20:32.658Z,18.11
2016-08-02T09:21:32.571Z,17.85
2016-08-02T09:22:31.891Z,17.92
2016-08-02T09:23:32.544Z,18
2016-08-02T09:24:31.830Z,17.49
2016-08-02T09:25:32.533Z,17.54
2016-08-02T09:26:31.802Z,17.44
2016-08-02T09:27:32.492Z,17.75
2016-08-02T09:28:31.760Z,17.96
2016-08-02T09:29:32.471Z,18.08
2016-08-02T09:30:31.745Z,18.05
2016-08-02T09:31:32.441Z,18.02
2016-08-02T09:32:32.501Z,17.86
2016-08-02T09:33:32.415Z,17.56
2016-08-02T09:34:32.420Z,17.36
2016-08-02T09:35:31.706Z,17.37
2016-08-02T09:36:32.376Z,17.44
2016-08-02T09:37:32.370Z,17.68
2016-08-02T09:38:31.699Z,17.82
2016-08-02T09:39:31.617Z,18.01
2016-08-02T09:40:31.623Z,18.04
2016-08-02T09:41:32.303Z,18.29
2016-08-02T09:42:30.861Z,18.26
2016-08-02T09:43:31.561Z,18.35
2016-08-02T09:44:31.552Z,18.5
2016-08-02T09:45:32.258Z,18.44
2016-08-02T09:46:32.248Z,18.35
2016-08-02T09:47:32.232Z,18.37
2016-08-02T09:48:32.222Z,18.26
2016-08-02T09:49:31.566Z,18.22
2016-08-02T09:50:32.194Z,18.04
2016-08-02T09:51:32.179Z,17.92
2016-08-02T09:52:32.181Z,17.86
2016-08-02T09:53:31.437Z,17.93
2016-08-02T09:54:31.422Z,17.9
2016-08-02T09:55:31.464Z,18.08
2016-08-02T09:56:32.124Z,18.19
2016-08-02T09:57:32.096Z,18.18
2016-08-02T09:58:32.111Z,17.96
2016-08-02T09:59:32.077Z,17.83
2016-08-02T10:00:32.060Z,17.96
2016-08-02T10:01:32.050Z,18.02
2016-08-02T10:02:31.333Z,18
2016-08-02T10:03:32.032Z,18.02
2016-08-02T10:04:31.291Z,18.05
2016-08-02T10:05:31.370Z,17.98
2016-08-02T10:06:30.562Z,17.96
2016-08-02T10:07:31.966Z,17.96
2016-08-02T10:08:31.250Z,18.04
2016-08-02T10:09:30.519Z,18.11
2016-08-02T10:10:30.783Z,18.14
2016-08-02T10:11:31.917Z,18.23
2016-08-02T10:12:31.920Z,18.29
2016-08-02T10:13:31.887Z,18.35
2016-08-02T10:14:30.461Z,18.41
2016-08-02T10:15:32.124Z,18.41
2016-08-02T10:16:31.842Z,18.44
2016-08-02T10:17:31.833Z,18.47
2016-08-02T10:18:31.097Z,18.37
2016-08-02T10:19:31.811Z,18.4
2016-08-02T10:20:31.803Z,18.37
2016-08-02T10:21:30.353Z,18.26
2016-08-02T10:22:31.768Z,18.12
2016-08-02T10:23:31.767Z,17.93
2016-08-02T10:24:31.742Z,17.89
2016-08-02T10:25:30.574Z,17.83
2016-08-02T10:26:31.004Z,17.64
2016-08-02T10:27:31.025Z,17.64
2016-08-02T10:28:31.689Z,17.45
2016-08-02T10:29:31.675Z,17.51
2016-08-02T10:30:30.953Z,17.65
2016-08-02T10:31:31.639Z,17.72
2016-08-02T10:32:30.907Z,17.9
2016-08-02T10:33:31.610Z,17.95
2016-08-02T10:34:30.174Z,17.8
2016-08-02T10:35:31.653Z,17.64
2016-08-02T10:36:31.573Z,17.51
2016-08-02T10:37:31.571Z,17.33
2016-08-02T10:38:30.120Z,17.15
2016-08-02T10:39:31.563Z,17.05
2016-08-02T10:40:30.146Z,16.94
2016-08-02T10:41:30.822Z,16.98
2016-08-02T10:42:30.783Z,16.96
2016-08-02T10:43:30.756Z,17.11
2016-08-02T10:44:31.481Z,17.05
2016-08-02T10:45:31.493Z,17.18
2016-08-02T10:46:30.716Z,17.21
2016-08-02T10:47:31.443Z,17.26
2016-08-02T10:48:31.401Z,17.4
2016-08-02T10:49:30.666Z,17.56
2016-08-02T10:50:30.664Z,17.64
2016-08-02T10:51:31.367Z,17.89
2016-08-02T10:52:30.645Z,18.01
2016-08-02T10:53:30.620Z,18.18
2016-08-02T10:54:30.619Z,18.4
2016-08-02T10:56:31.300Z,18.96
2016-08-02T10:57:31.290Z,18.77
2016-08-02T10:58:30.559Z,18.99
2016-08-02T10:59:31.266Z,19.33
2016-08-02T11:00:30.528Z,19.53
2016-08-02T11:01:30.518Z,19.36
2016-08-02T11:02:30.498Z,19.34
2016-08-02T11:03:30.487Z,19.51
2016-08-02T11:04:31.188Z,19.41
2016-08-02T11:05:31.288Z,19.26
2016-08-02T11:06:30.459Z,19.34
2016-08-02T11:07:30.432Z,19.41
2016-08-02T11:08:31.138Z,19.48
2016-08-02T11:09:30.428Z,19.12
2016-08-02T11:11:31.102Z,18.73
2016-08-02T11:12:30.386Z,18.58
2016-08-02T11:13:30.360Z,18.74
2016-08-02T11:14:30.383Z,18.66
2016-08-02T11:15:30.339Z,18.7
2016-08-02T11:16:30.335Z,18.65
2016-08-02T11:17:31.035Z,18.52
2016-08-02T11:18:29.587Z,18.52
2016-08-02T11:19:31.000Z,18.47
2016-08-02T11:20:30.288Z,18.41
2016-08-02T11:21:30.992Z,18.51
2016-08-02T11:22:30.969Z,18.63
2016-08-02T11:23:30.262Z,18.63
2016-08-02T11:24:30.231Z,18.44
2016-08-02T11:25:29.533Z,18.42
2016-08-02T11:26:30.922Z,18.52
2016-08-02T11:27:30.196Z,18.48
2016-08-02T11:28:30.888Z,18.58
2016-08-02T11:29:30.892Z,18.66
2016-08-02T11:30:30.857Z,18.85
2016-08-02T11:31:30.149Z,18.87
2016-08-02T11:32:30.135Z,18.59
2016-08-02T11:33:30.105Z,18.62
2016-08-02T11:34:30.814Z,18.82
2016-08-02T11:35:30.122Z,18.69
2016-08-02T11:36:30.809Z,18.74
2016-08-02T11:37:30.784Z,19.02
2016-08-02T11:38:30.045Z,19.22
2016-08-02T11:39:30.761Z,19.48
2016-08-02T11:41:30.037Z,19.74
2016-08-02T11:42:30.009Z,19.96
2016-08-02T11:43:30.724Z,20.06
2016-08-02T11:44:30.769Z,20.25
2016-08-02T11:45:29.959Z,20.26
2016-08-02T11:46:29.962Z,19.99
2016-08-02T11:47:30.663Z,20.01
2016-08-02T11:48:30.699Z,19.81
2016-08-02T11:49:29.204Z,19.78
2016-08-02T11:50:30.641Z,19.44
2016-08-02T11:51:30.618Z,19.61
2016-08-02T11:52:30.658Z,19.67
2016-08-02T11:53:30.590Z,19.71
2016-08-02T11:54:30.613Z,19.81
2016-08-02T11:55:29.833Z,19.59
2016-08-02T11:56:30.586Z,19.51
2016-08-02T11:57:29.812Z,19.38
2016-08-02T11:58:29.807Z,19.3
2016-08-02T11:59:30.502Z,19.23
2016-08-02T12:00:29.788Z,19.16
2016-08-02T12:01:29.781Z,19.08
2016-08-02T12:02:30.521Z,19.12
2016-08-02T12:03:29.034Z,19
2016-08-02T12:04:30.444Z,18.95
2016-08-02T12:05:29.724Z,18.88
2016-08-02T12:06:30.431Z,18.78
2016-08-02T12:07:30.406Z,18.84
2016-08-02T12:08:30.400Z,18.82
2016-08-02T12:09:30.387Z,18.8
2016-08-02T12:10:29.651Z,18.73
2016-08-02T12:11:29.659Z,18.77
2016-08-02T12:12:28.920Z,18.9
2016-08-02T12:13:30.335Z,18.75
2016-08-02T12:14:30.322Z,18.55
2016-08-02T12:15:30.319Z,18.52
2016-08-02T12:16:30.310Z,18.78
2016-08-02T12:17:29.580Z,18.88
2016-08-02T12:18:30.262Z,18.84
2016-08-02T12:19:29.541Z,18.9
2016-08-02T12:20:30.245Z,18.95
2016-08-02T12:21:30.252Z,18.87
2016-08-02T12:22:30.277Z,19.04
2016-08-02T12:23:30.201Z,19
2016-08-02T12:24:28.767Z,18.8
2016-08-02T12:25:29.526Z,18.96
2016-08-02T12:26:30.168Z,19.07
2016-08-02T12:27:30.160Z,19.18
2016-08-02T12:28:30.152Z,19.08
2016-08-02T12:29:30.132Z,19.21
2016-08-02T12:30:30.119Z,19.25
2016-08-02T12:31:29.388Z,19.31
2016-08-02T12:32:30.108Z,19.34
2016-08-02T12:33:29.433Z,19.4
2016-08-02T12:34:29.361Z,19.49
2016-08-02T12:35:30.055Z,19.61
2016-08-02T12:36:30.043Z,19.56
2016-08-02T12:37:30.027Z,19.4
2016-08-02T12:38:29.313Z,19.12
2016-08-02T12:39:30.009Z,19.22
2016-08-02T12:40:28.570Z,19.14
2016-08-02T12:41:29.258Z,19.15
2016-08-02T12:42:29.969Z,19.19
2016-08-02T12:43:28.637Z,19.28
2016-08-02T12:44:29.942Z,19.4
2016-08-02T12:45:29.931Z,19.25
2016-08-02T12:46:29.203Z,19.22
2016-08-02T12:47:29.921Z,19.3
2016-08-02T12:48:29.899Z,19.38
2016-08-02T12:49:29.325Z,19.38
2016-08-02T12:50:29.165Z,19.41
2016-08-02T12:51:29.866Z,19.4
2016-08-02T12:52:29.846Z,19.41
2016-08-02T12:53:29.832Z,19.38
2016-08-02T12:54:29.813Z,19.53
2016-08-02T12:55:29.094Z,19.52
2016-08-02T12:56:29.801Z,19.66
2016-08-02T12:57:29.057Z,19.77
2016-08-02T12:58:29.056Z,19.88
2016-08-02T12:59:29.764Z,19.8
2016-08-02T13:00:29.026Z,19.81
2016-08-02T13:01:29.077Z,19.71
2016-08-02T13:02:28.999Z,19.85
2016-08-02T13:03:29.704Z,20.03